createdAt,value
2018-06-17T00:01:26.299Z,18.70
2018-06-17T00:03:56.467Z,18.60
2018-06-17T00:06:26.520Z,18.60
2018-06-17T00:08:56.677Z,18.50
2018-06-17T00:11:26.778Z,18.50
2018-06-17T00:13:56.892Z,18.40
2018-06-17T00:16:27.012Z,18.40
2018-06-17T00:18:57.094Z,18.40
2018-06-17T00:21:27.816Z,18.40
2018-06-17T00:23:57.996Z,18.40
2018-06-17T00:26:28.065Z,18.40
2018-06-17T00:28:58.090Z,18.40
2018-06-17T00:31:28.152Z,18.40
2018-06-17T00:33:58.862Z,18.40
2018-06-17T00:36:28.897Z,18.30
2018-06-17T00:38:59.016Z,18.30
2018-06-17T00:41:29.190Z,18.30
2018-06-17T00:43:59.676Z,18.30
2018-06-17T00:46:29.845Z,18.30
2018-06-17T00:49:00.079Z,18.20
2018-06-17T00:51:30.120Z,18.20
2018-06-17T00:54:00.607Z,18.10
2018-06-17T00:56:30.671Z,18.10
2018-06-17T00:59:00.752Z,18.00
2018-06-17T01:01:30.861Z,17.90
2018-06-17T01:04:00.994Z,17.90
2018-06-17T01:06:31.156Z,17.80
2018-06-17T01:09:01.356Z,17.80
2018-06-17T01:11:31.486Z,17.80
2018-06-17T01:14:02.440Z,17.70
2018-06-17T01:16:32.473Z,17.70
2018-06-17T01:19:02.567Z,17.70
2018-06-17T01:21:32.686Z,17.70
2018-06-17T01:24:03.116Z,17.70
2018-06-17T01:26:33.661Z,17.70
2018-06-17T01:29:03.812Z,17.60
2018-06-17T01:31:33.929Z,17.70
2018-06-17T01:34:04.736Z,17.70
2018-06-17T01:36:34.753Z,17.60
2018-06-17T01:39:07.629Z,17.60
2018-06-17T01:41:37.679Z,17.60
2018-06-17T01:44:07.815Z,17.60
2018-06-17T01:46:38.001Z,17.60
2018-06-17T01:49:08.076Z,17.60
2018-06-17T01:51:38.187Z,17.60
2018-06-17T01:54:08.502Z,17.60
2018-06-17T01:56:38.601Z,17.60
2018-06-17T01:59:08.726Z,17.50
2018-06-17T02:01:38.951Z,17.40
2018-06-17T02:04:14.233Z,17.40
2018-06-17T02:06:49.571Z,17.40
2018-06-17T02:09:24.793Z,17.40
2018-06-17T02:14:36.298Z,17.30
2018-06-17T02:17:06.397Z,17.20
2018-06-17T02:19:36.448Z,17.20
2018-06-17T02:22:06.849Z,17.10
2018-06-17T02:24:37.327Z,17.10
2018-06-17T02:27:07.737Z,17.10
2018-06-17T02:29:37.945Z,17.00
2018-06-17T02:32:08.481Z,17.00
2018-06-17T02:34:38.879Z,16.90
2018-06-17T02:37:09.929Z,16.90
2018-06-17T02:39:40.121Z,16.90
2018-06-17T02:42:10.553Z,16.90
2018-06-17T02:44:40.672Z,16.80
2018-06-17T02:47:15.959Z,16.70
2018-06-17T02:49:48.543Z,16.70
2018-06-17T02:52:24.030Z,16.60
2018-06-17T02:54:54.101Z,16.60
2018-06-17T02:57:24.307Z,16.60
2018-06-17T02:59:54.385Z,16.50
2018-06-17T03:02:24.496Z,16.50
2018-06-17T03:04:54.549Z,16.50
2018-06-17T03:07:24.787Z,16.40
2018-06-17T03:09:54.907Z,16.40
2018-06-17T03:12:25.026Z,16.40
2018-06-17T03:14:55.193Z,16.40
2018-06-17T03:17:25.414Z,16.30
2018-06-17T03:19:56.249Z,16.30
2018-06-17T03:22:26.375Z,16.30
2018-06-17T03:25:01.643Z,16.30
2018-06-17T03:27:37.056Z,16.30
2018-06-17T03:30:12.397Z,16.30
2018-06-17T03:32:47.927Z,16.30
2018-06-17T03:35:23.541Z,16.30
2018-06-17T03:37:53.557Z,16.30
2018-06-17T03:40:23.677Z,16.30
2018-06-17T03:42:53.899Z,16.30
2018-06-17T03:45:24.059Z,16.30
2018-06-17T03:47:54.060Z,16.20
2018-06-17T03:50:24.127Z,16.20
2018-06-17T03:52:54.189Z,16.20
2018-06-17T03:55:24.217Z,16.20
2018-06-17T03:57:54.313Z,16.20
2018-06-17T04:00:24.905Z,16.20
2018-06-17T04:02:55.002Z,16.30
2018-06-17T04:05:28.045Z,16.30
2018-06-17T04:07:59.699Z,16.30
2018-06-17T04:10:29.870Z,16.30
2018-06-17T04:13:00.046Z,16.30
2018-06-17T04:15:30.117Z,16.30
2018-06-17T04:18:00.232Z,16.30
2018-06-17T04:20:31.642Z,16.30
2018-06-17T04:23:01.794Z,16.30
2018-06-17T04:25:32.028Z,16.30
2018-06-17T04:28:02.052Z,16.40
2018-06-17T04:30:32.420Z,16.40
2018-06-17T04:33:02.503Z,16.40
2018-06-17T04:35:32.610Z,16.40
2018-06-17T04:38:02.801Z,16.50
2018-06-17T04:40:32.916Z,16.50
2018-06-17T04:43:03.112Z,16.60
2018-06-17T04:45:33.432Z,16.60
2018-06-17T04:48:03.640Z,16.70
2018-06-17T04:50:35.369Z,16.80
2018-06-17T04:53:05.542Z,16.80
2018-06-17T04:55:35.586Z,16.90
2018-06-17T04:58:05.692Z,17.00
2018-06-17T05:00:35.838Z,17.10
2018-06-17T05:03:05.902Z,17.10
2018-06-17T05:05:36.061Z,17.20
2018-06-17T05:08:06.642Z,17.20
2018-06-17T05:10:36.713Z,17.30
2018-06-17T05:13:07.444Z,17.30
2018-06-17T05:15:37.563Z,17.40
2018-06-17T05:18:07.669Z,17.50
2018-06-17T05:20:37.748Z,17.50
2018-06-17T05:23:07.806Z,17.60
2018-06-17T05:25:38.527Z,17.60
2018-06-17T05:28:08.586Z,17.70
2018-06-17T05:30:39.762Z,17.80
2018-06-17T05:33:10.216Z,17.90
2018-06-17T05:35:40.256Z,18.00
2018-06-17T05:38:10.284Z,18.20
2018-06-17T05:40:40.338Z,18.40
2018-06-17T05:43:10.515Z,18.50
2018-06-17T05:45:40.664Z,18.60
2018-06-17T05:48:10.711Z,18.80
2018-06-17T05:50:40.843Z,18.90
2018-06-17T05:53:10.930Z,19.00
2018-06-17T05:55:41.132Z,19.00
2018-06-17T05:58:11.120Z,19.10
2018-06-17T06:00:41.340Z,19.20
2018-06-17T06:03:11.455Z,19.30
2018-06-17T06:05:41.971Z,19.40
2018-06-17T06:08:12.191Z,19.40
2018-06-17T06:10:42.270Z,19.50
2018-06-17T06:13:12.436Z,19.60
2018-06-17T06:15:43.246Z,19.50
2018-06-17T06:18:13.534Z,19.40
2018-06-17T06:20:43.814Z,19.30
2018-06-17T06:23:13.960Z,19.20
2018-06-17T06:25:44.345Z,19.10
2018-06-17T06:28:14.998Z,19.10
2018-06-17T06:30:45.197Z,19.10
2018-06-17T06:33:15.339Z,19.10
2018-06-17T06:35:45.513Z,19.10
2018-06-17T06:38:15.528Z,19.20
2018-06-17T06:40:45.694Z,19.20
2018-06-17T06:43:15.829Z,19.20
2018-06-17T06:45:45.862Z,19.30
2018-06-17T06:48:16.083Z,19.30
2018-06-17T06:50:46.122Z,19.40
2018-06-17T06:53:16.268Z,19.40
2018-06-17T06:55:46.441Z,19.50
2018-06-17T06:58:16.658Z,19.50
2018-06-17T07:00:47.012Z,19.60
2018-06-17T07:03:33.884Z,19.70
2018-06-17T07:06:20.880Z,19.80
2018-06-17T07:09:07.969Z,20.00
2018-06-17T07:11:38.047Z,20.10
2018-06-17T07:14:08.912Z,20.20
2018-06-17T07:16:56.220Z,20.30
2018-06-17T07:19:26.264Z,20.50
2018-06-17T07:21:56.430Z,20.70
2018-06-17T07:24:26.497Z,21.00
2018-06-17T07:27:13.555Z,21.20
2018-06-17T07:29:47.185Z,21.30
2018-06-17T07:32:17.266Z,21.40
2018-06-17T07:34:47.379Z,21.50
2018-06-17T07:37:17.597Z,21.50
2018-06-17T07:40:52.400Z,21.50
2018-06-17T07:43:22.711Z,21.50
2018-06-17T07:45:53.169Z,21.50
2018-06-17T07:50:17.887Z,21.50
2018-06-17T07:53:05.040Z,21.40
2018-06-17T07:55:35.176Z,21.40
2018-06-17T07:58:05.387Z,21.50
2018-06-17T08:00:36.373Z,21.40
2018-06-17T08:03:06.667Z,21.30
2018-06-17T08:05:36.755Z,21.30
2018-06-17T08:08:06.895Z,21.20
2018-06-17T08:10:36.984Z,21.20
2018-06-17T08:13:07.147Z,21.20
2018-06-17T08:15:37.457Z,21.30
2018-06-17T08:18:07.671Z,21.30
2018-06-17T08:20:37.905Z,21.20
2018-06-17T08:23:08.163Z,21.10
2018-06-17T08:25:38.911Z,21.00
2018-06-17T08:28:09.663Z,20.90
2018-06-17T08:30:39.990Z,20.90
2018-06-17T08:33:10.107Z,20.80
2018-06-17T08:35:40.231Z,20.80
2018-06-17T08:38:10.293Z,20.80
2018-06-17T08:40:40.874Z,20.80
2018-06-17T08:45:40.611Z,21.00
2018-06-17T08:48:10.755Z,21.20
2018-06-17T08:50:40.848Z,21.20
2018-06-17T08:53:11.036Z,21.30
2018-06-17T08:55:41.420Z,21.40
2018-06-17T08:58:11.421Z,21.50
2018-06-17T09:00:41.546Z,21.60
2018-06-17T09:03:11.580Z,21.60
2018-06-17T09:05:41.821Z,21.60
2018-06-17T09:08:11.967Z,21.70
2018-06-17T09:10:42.651Z,21.70
2018-06-17T09:13:13.144Z,21.70
2018-06-17T09:15:43.353Z,21.80
2018-06-17T09:18:13.408Z,22.00
2018-06-17T09:20:43.680Z,22.20
2018-06-17T09:23:13.752Z,22.40
2018-06-17T09:25:44.947Z,22.50
2018-06-17T09:28:14.994Z,22.40
2018-06-17T09:30:45.186Z,22.40
2018-06-17T09:33:15.325Z,22.40
2018-06-17T09:35:45.917Z,22.30
2018-06-17T09:38:16.034Z,22.20
2018-06-17T09:40:49.204Z,22.10
2018-06-17T09:43:19.454Z,22.10
2018-06-17T09:45:49.497Z,22.20
2018-06-17T09:48:19.642Z,22.50
2018-06-17T09:50:49.718Z,22.60
2018-06-17T09:53:19.816Z,22.70
2018-06-17T09:55:50.584Z,22.80
2018-06-17T09:58:21.189Z,22.90
2018-06-17T10:00:51.194Z,22.90
2018-06-17T10:03:21.216Z,22.80
2018-06-17T10:05:51.418Z,22.80
2018-06-17T10:08:21.572Z,22.80
2018-06-17T10:10:56.628Z,22.80
2018-06-17T10:13:29.032Z,22.90
2018-06-17T10:15:59.206Z,23.00
2018-06-17T10:18:30.354Z,22.90
2018-06-17T10:21:00.455Z,22.90
2018-06-17T10:23:30.523Z,22.80
2018-06-17T10:26:01.480Z,22.80
2018-06-17T10:28:32.671Z,22.60
2018-06-17T10:31:04.327Z,22.50
2018-06-17T10:33:36.412Z,22.30
2018-06-17T10:36:06.890Z,22.30
2018-06-17T10:38:37.163Z,22.10
2018-06-17T10:41:07.294Z,21.90
2018-06-17T10:43:37.420Z,21.70
2018-06-17T10:46:07.559Z,21.60
2018-06-17T10:51:07.468Z,21.30
2018-06-17T10:56:07.851Z,21.10
2018-06-17T10:58:37.775Z,21.10
2018-06-17T11:01:07.993Z,20.90
2018-06-17T11:03:38.695Z,20.90
2018-06-17T11:06:08.880Z,20.80
2018-06-17T11:08:38.932Z,20.80
2018-06-17T11:11:09.260Z,20.70
2018-06-17T11:13:39.394Z,20.70
2018-06-17T11:16:09.437Z,20.70
2018-06-17T11:18:39.818Z,20.80
2018-06-17T11:21:09.981Z,20.80
2018-06-17T11:23:40.122Z,20.80
2018-06-17T11:26:10.220Z,20.80
2018-06-17T11:28:40.309Z,20.70
2018-06-17T11:31:10.947Z,20.70
2018-06-17T11:33:41.001Z,20.80
2018-06-17T11:36:11.296Z,20.90
2018-06-17T11:38:41.526Z,20.90
2018-06-17T11:41:11.625Z,21.00
2018-06-17T11:43:41.785Z,21.10
2018-06-17T11:46:11.903Z,21.20
2018-06-17T11:48:42.007Z,21.40
2018-06-17T11:51:12.453Z,21.40
2018-06-17T11:53:42.657Z,21.50
2018-06-17T11:56:12.811Z,21.60
2018-06-17T11:58:43.077Z,21.70
2018-06-17T12:01:13.172Z,21.80
2018-06-17T12:03:43.584Z,22.00
2018-06-17T12:06:13.923Z,22.10
2018-06-17T12:11:14.133Z,22.30
2018-06-17T12:16:13.995Z,22.60
2018-06-17T12:18:44.453Z,22.70
2018-06-17T12:21:14.663Z,22.80
2018-06-17T12:23:44.819Z,22.90
2018-06-17T12:26:15.377Z,23.00
2018-06-17T12:28:45.456Z,23.10
2018-06-17T12:31:15.777Z,23.20
2018-06-17T12:33:46.283Z,23.20
2018-06-17T12:36:16.509Z,23.20
2018-06-17T12:38:46.992Z,23.20
2018-06-17T12:41:17.053Z,23.20
2018-06-17T12:43:47.648Z,23.10
2018-06-17T12:46:17.774Z,22.90
2018-06-17T12:48:47.897Z,22.80
2018-06-17T12:51:18.129Z,22.70
2018-06-17T12:53:48.695Z,22.70
2018-06-17T12:56:18.805Z,22.60
2018-06-17T12:58:48.915Z,22.70
2018-06-17T13:01:19.141Z,22.70
2018-06-17T13:03:49.767Z,22.80
2018-06-17T13:06:19.825Z,22.90
2018-06-17T13:08:49.861Z,23.10
2018-06-17T13:11:20.031Z,23.30
2018-06-17T13:13:50.088Z,23.50
2018-06-17T13:16:20.302Z,23.80
2018-06-17T13:18:50.485Z,24.10
2018-06-17T13:21:20.618Z,24.20
2018-06-17T13:23:51.701Z,24.20
2018-06-17T13:26:21.892Z,24.10
2018-06-17T13:28:51.958Z,24.00
2018-06-17T13:31:22.082Z,23.80
2018-06-17T13:33:52.225Z,23.70
2018-06-17T13:36:22.436Z,23.70
2018-06-17T13:38:52.632Z,23.90
2018-06-17T13:41:22.852Z,24.10
2018-06-17T13:43:53.310Z,24.40
2018-06-17T13:46:23.867Z,24.70
2018-06-17T13:48:54.090Z,24.90
2018-06-17T13:51:24.232Z,24.90
2018-06-17T13:53:54.456Z,24.90
2018-06-17T13:56:25.168Z,24.80
2018-06-17T13:58:55.228Z,24.90
2018-06-17T14:01:26.527Z,25.60
2018-06-17T14:03:57.047Z,25.40
2018-06-17T14:06:27.158Z,25.10
2018-06-17T14:08:57.135Z,26.60
2018-06-17T14:11:31.451Z,27.70
2018-06-17T14:14:02.715Z,30.00
2018-06-17T14:16:32.858Z,30.70
2018-06-17T14:19:02.928Z,29.60
2018-06-17T14:21:33.081Z,28.20
2018-06-17T14:24:03.086Z,27.00
2018-06-17T14:26:33.128Z,26.20
2018-06-17T14:29:03.188Z,26.20
2018-06-17T14:31:33.236Z,28.80
2018-06-17T14:34:03.304Z,31.40
2018-06-17T14:36:33.348Z,32.10
2018-06-17T14:39:04.376Z,31.20
2018-06-17T14:41:34.509Z,30.90
2018-06-17T14:44:09.908Z,29.70
2018-06-17T14:46:45.868Z,28.30
2018-06-17T14:49:21.148Z,28.50
2018-06-17T14:51:51.845Z,27.80
2018-06-17T14:54:21.936Z,27.70
2018-06-17T14:56:52.013Z,28.20
2018-06-17T14:59:22.235Z,28.40
2018-06-17T15:01:52.292Z,28.70
2018-06-17T15:04:22.413Z,29.80
2018-06-17T15:06:52.439Z,30.70
2018-06-17T15:09:22.464Z,30.80
2018-06-17T15:11:52.564Z,30.90
2018-06-17T15:14:22.960Z,29.90
2018-06-17T15:16:53.121Z,28.60
2018-06-17T15:19:23.230Z,27.60
2018-06-17T15:21:53.257Z,26.80
2018-06-17T15:24:23.813Z,26.20
2018-06-17T15:26:53.954Z,25.70
2018-06-17T15:29:24.047Z,25.40
2018-06-17T15:33:01.814Z,25.20
2018-06-17T15:35:37.207Z,24.90
2018-06-17T15:38:12.388Z,24.50
2018-06-17T15:43:17.461Z,24.10
2018-06-17T15:45:47.599Z,24.10
2018-06-17T15:48:18.415Z,24.00
2018-06-17T15:50:49.507Z,23.90
2018-06-17T15:53:19.866Z,24.20
2018-06-17T15:55:49.974Z,25.20
2018-06-17T15:58:20.069Z,26.20
2018-06-17T16:00:50.263Z,26.70
2018-06-17T16:03:20.467Z,26.80
2018-06-17T16:05:51.113Z,26.90
2018-06-17T16:08:21.241Z,27.00
2018-06-17T16:10:51.523Z,26.90
2018-06-17T16:13:26.771Z,26.60
2018-06-17T16:16:02.120Z,26.20
2018-06-17T16:18:37.333Z,25.90
2018-06-17T16:21:08.589Z,25.50
2018-06-17T16:23:38.769Z,25.00
2018-06-17T16:26:08.852Z,24.60
2018-06-17T16:28:39.647Z,24.40
2018-06-17T16:31:09.975Z,24.30
2018-06-17T16:33:40.536Z,24.30
2018-06-17T16:36:10.609Z,24.40
2018-06-17T16:38:40.701Z,24.50
2018-06-17T16:41:10.851Z,24.60
2018-06-17T16:43:41.082Z,24.70
2018-06-17T16:46:11.287Z,24.70
2018-06-17T16:48:41.373Z,24.70
2018-06-17T16:52:16.415Z,24.60
2018-06-17T16:54:51.817Z,24.50
2018-06-17T16:57:27.255Z,24.30
2018-06-17T17:00:00.552Z,24.10
2018-06-17T17:02:30.617Z,23.90
2018-06-17T17:05:00.779Z,23.60
2018-06-17T17:07:31.048Z,23.50
2018-06-17T17:10:01.284Z,23.40
2018-06-17T17:12:32.657Z,23.70
2018-06-17T17:15:02.829Z,24.60
2018-06-17T17:17:33.332Z,24.90
2018-06-17T17:20:03.582Z,24.70
2018-06-17T17:22:34.527Z,24.50
2018-06-17T17:25:04.895Z,24.10
2018-06-17T17:27:35.095Z,23.80
2018-06-17T17:30:05.564Z,23.50
2018-06-17T17:32:40.982Z,23.30
2018-06-17T17:35:16.272Z,23.10
2018-06-17T17:37:52.375Z,23.00
2018-06-17T17:40:27.644Z,22.90
2018-06-17T17:42:57.714Z,22.80
2018-06-17T17:45:32.002Z,22.70
2018-06-17T17:50:32.251Z,22.60
2018-06-17T17:53:02.358Z,22.50
2018-06-17T17:55:32.582Z,22.50
2018-06-17T17:58:03.078Z,22.40
2018-06-17T18:00:35.398Z,22.30
2018-06-17T18:03:05.520Z,22.30
2018-06-17T18:05:35.777Z,22.20
2018-06-17T18:08:05.893Z,22.20
2018-06-17T18:10:36.770Z,22.10
2018-06-17T18:13:06.941Z,22.10
2018-06-17T18:15:37.728Z,22.00
2018-06-17T18:18:07.892Z,22.00
2018-06-17T18:20:38.169Z,21.90
2018-06-17T18:23:08.846Z,21.80
2018-06-17T18:25:44.346Z,21.80
2018-06-17T18:30:56.659Z,21.70
2018-06-17T18:33:32.012Z,21.70
2018-06-17T18:36:07.577Z,21.70
2018-06-17T18:38:39.414Z,21.60
2018-06-17T18:41:10.262Z,21.60
2018-06-17T18:43:41.743Z,21.60
2018-06-17T18:46:12.906Z,21.50
2018-06-17T18:48:43.058Z,21.50
2018-06-17T18:51:13.145Z,21.40
2018-06-17T18:53:43.397Z,21.40
2018-06-17T18:56:13.577Z,21.30
2018-06-17T18:58:43.647Z,21.30
2018-06-17T19:01:13.881Z,21.20
2018-06-17T19:03:44.295Z,21.20
2018-06-17T19:06:14.565Z,21.20
2018-06-17T19:08:49.995Z,21.10
2018-06-17T19:11:25.450Z,21.10
2018-06-17T19:14:01.579Z,21.10
2018-06-17T19:16:37.080Z,21.10
2018-06-17T19:19:07.275Z,21.00
2018-06-17T19:21:37.402Z,21.00
2018-06-17T19:24:08.485Z,21.00
2018-06-17T19:26:38.761Z,21.00
2018-06-17T19:29:08.987Z,21.00
2018-06-17T19:31:39.870Z,20.90
2018-06-17T19:34:10.090Z,20.90
2018-06-17T19:39:11.939Z,20.90
2018-06-17T19:41:42.169Z,20.90
2018-06-17T19:44:13.888Z,20.80
2018-06-17T19:46:44.102Z,20.80
2018-06-17T19:49:14.319Z,20.80
2018-06-17T19:51:49.591Z,20.80
2018-06-17T19:54:24.989Z,20.80
2018-06-17T19:57:00.222Z,20.80
2018-06-17T19:59:36.405Z,20.80
2018-06-17T20:02:06.629Z,20.80
2018-06-17T20:04:36.792Z,20.80
2018-06-17T20:07:07.138Z,20.80
2018-06-17T20:09:37.204Z,20.70
2018-06-17T20:12:07.373Z,20.70
2018-06-17T20:14:37.383Z,20.70
2018-06-17T20:17:07.581Z,20.70
2018-06-17T20:19:37.844Z,20.70
2018-06-17T20:22:07.992Z,20.70
2018-06-17T20:24:37.989Z,20.60
2018-06-17T20:27:08.198Z,20.60
2018-06-17T20:29:38.460Z,20.60
2018-06-17T20:32:13.827Z,20.50
2018-06-17T20:34:49.240Z,20.50
2018-06-17T20:37:24.523Z,20.50
2018-06-17T20:39:59.965Z,20.50
2018-06-17T20:42:35.145Z,20.40
2018-06-17T20:47:35.611Z,20.30
2018-06-17T20:50:05.879Z,20.30
2018-06-17T20:52:36.042Z,20.30
2018-06-17T20:55:06.517Z,20.30
2018-06-17T20:57:36.623Z,20.30
2018-06-17T21:00:07.319Z,20.20
2018-06-17T21:02:37.488Z,20.20
2018-06-17T21:05:07.591Z,20.10
2018-06-17T21:07:37.636Z,20.10
2018-06-17T21:10:08.154Z,20.10
2018-06-17T21:12:38.297Z,20.00
2018-06-17T21:15:13.706Z,20.00
2018-06-17T21:17:43.870Z,19.90
2018-06-17T21:20:19.335Z,19.90
2018-06-17T21:22:54.844Z,19.90
2018-06-17T21:25:31.300Z,19.90
2018-06-17T21:28:02.638Z,19.90
2018-06-17T21:30:32.794Z,19.90
2018-06-17T21:33:02.912Z,19.80
2018-06-17T21:35:33.106Z,19.80
2018-06-17T21:38:03.202Z,19.80
2018-06-17T21:40:33.300Z,19.80
2018-06-17T21:43:03.696Z,19.80
2018-06-17T21:45:33.734Z,19.70
2018-06-17T21:48:03.962Z,19.70
2018-06-17T21:50:34.540Z,19.70
2018-06-17T21:53:04.798Z,19.60
2018-06-17T21:55:35.809Z,19.60
2018-06-17T21:58:05.946Z,19.60
2018-06-17T22:00:36.062Z,19.60
2018-06-17T22:03:06.314Z,19.60
2018-06-17T22:05:36.381Z,19.60
2018-06-17T22:08:11.826Z,19.60
2018-06-17T22:10:47.131Z,19.60
2018-06-17T22:13:17.212Z,19.60
2018-06-17T22:16:56.270Z,19.50
2018-06-17T22:19:26.411Z,19.60
2018-06-17T22:21:56.609Z,19.50
2018-06-17T22:24:26.720Z,19.50
2018-06-17T22:26:56.774Z,19.50
2018-06-17T22:29:26.940Z,19.40
2018-06-17T22:31:57.157Z,19.40
2018-06-17T22:34:27.325Z,19.40
2018-06-17T22:36:58.004Z,19.40
2018-06-17T22:39:28.178Z,19.40
2018-06-17T22:41:58.344Z,19.40
2018-06-17T22:44:28.425Z,19.40
2018-06-17T22:46:59.040Z,19.40
2018-06-17T22:49:29.186Z,19.40
2018-06-17T22:51:59.769Z,19.40
2018-06-17T22:54:51.925Z,19.40
2018-06-17T22:57:27.286Z,19.40
2018-06-17T23:00:02.733Z,19.40
2018-06-17T23:02:38.087Z,19.40
2018-06-17T23:06:16.983Z,19.40
2018-06-17T23:08:52.155Z,19.40
2018-06-17T23:11:22.247Z,19.30
2018-06-17T23:13:53.069Z,19.30
2018-06-17T23:16:23.681Z,19.20
2018-06-17T23:18:54.276Z,19.20
2018-06-17T23:21:24.345Z,19.20
2018-06-17T23:23:54.429Z,19.20
2018-06-17T23:26:24.595Z,19.10
2018-06-17T23:28:54.648Z,19.10
2018-06-17T23:31:25.639Z,19.10
2018-06-17T23:33:56.947Z,19.10
2018-06-17T23:36:27.049Z,19.10
2018-06-17T23:38:57.086Z,19.10
2018-06-17T23:41:27.213Z,19.10
2018-06-17T23:43:58.343Z,19.00
2018-06-17T23:46:34.327Z,19.00
2018-06-17T23:49:09.631Z,18.90
2018-06-17T23:51:45.035Z,18.90
2018-06-17T23:54:20.469Z,18.80
2018-06-17T23:56:50.539Z,18.80
2018-06-17T23:59:20.629Z,18.80
